sensor_id;sensor_type;location;lat;lon;timestamp;P1;durP1;ratioP1;P2;durP2;ratioP2
70705;SDS011;59320;52.316;10.870;2023-07-22T00:00:08;3.30;;;2.20;;
70705;SDS011;59320;52.316;10.870;2023-07-22T00:02:40;3.67;;;1.98;;
70705;SDS011;59320;52.316;10.870;2023-07-22T00:05:07;3.67;;;2.45;;
70705;SDS011;59320;52.316;10.870;2023-07-22T00:07:36;4.75;;;2.35;;
70705;SDS011;59320;52.316;10.870;2023-07-22T00:10:03;3.65;;;2.40;;
70705;SDS011;59320;52.316;10.870;2023-07-22T00:12:30;4.32;;;3.15;;
70705;SDS011;59320;52.316;10.870;2023-07-22T00:14:59;3.00;;;2.47;;
70705;SDS011;59320;52.316;10.870;2023-07-22T00:17:26;3.55;;;2.20;;
70705;SDS011;59320;52.316;10.870;2023-07-22T00:19:53;2.10;;;1.90;;
70705;SDS011;59320;52.316;10.870;2023-07-22T00:22:20;2.25;;;2.05;;
70705;SDS011;59320;52.316;10.870;2023-07-22T00:24:48;2.63;;;2.42;;
70705;SDS011;59320;52.316;10.870;2023-07-22T00:27:15;3.20;;;2.78;;
70705;SDS011;59320;52.316;10.870;2023-07-22T00:29:42;2.40;;;2.00;;
70705;SDS011;59320;52.316;10.870;2023-07-22T00:32:10;4.88;;;2.65;;
70705;SDS011;59320;52.316;10.870;2023-07-22T00:34:39;2.53;;;2.10;;
70705;SDS011;59320;52.316;10.870;2023-07-22T00:37:06;2.72;;;2.42;;
70705;SDS011;59320;52.316;10.870;2023-07-22T00:39:33;3.67;;;2.53;;
70705;SDS011;59320;52.316;10.870;2023-07-22T00:42:00;3.53;;;2.97;;
70705;SDS011;59320;52.316;10.870;2023-07-22T00:44:27;3.10;;;2.60;;
70705;SDS011;59320;52.316;10.870;2023-07-22T00:46:54;3.90;;;3.28;;
70705;SDS011;59320;52.316;10.870;2023-07-22T00:49:25;4.78;;;2.88;;
70705;SDS011;59320;52.316;10.870;2023-07-22T00:51:54;4.15;;;2.70;;
70705;SDS011;59320;52.316;10.870;2023-07-22T00:54:23;4.00;;;2.83;;
70705;SDS011;59320;52.316;10.870;2023-07-22T00:56:50;3.92;;;2.85;;
70705;SDS011;59320;52.316;10.870;2023-07-22T00:59:17;5.20;;;3.25;;
70705;SDS011;59320;52.316;10.870;2023-07-22T01:01:45;4.32;;;3.10;;
70705;SDS011;59320;52.316;10.870;2023-07-22T01:04:13;3.95;;;3.60;;
70705;SDS011;59320;52.316;10.870;2023-07-22T01:06:43;3.63;;;2.92;;
70705;SDS011;59320;52.316;10.870;2023-07-22T01:09:11;5.10;;;3.75;;
70705;SDS011;59320;52.316;10.870;2023-07-22T01:11:38;6.40;;;3.90;;
70705;SDS011;59320;52.316;10.870;2023-07-22T01:14:05;4.78;;;3.67;;
70705;SDS011;59320;52.316;10.870;2023-07-22T01:16:33;5.55;;;4.00;;
70705;SDS011;59320;52.316;10.870;2023-07-22T01:19:00;6.60;;;4.13;;
70705;SDS011;59320;52.316;10.870;2023-07-22T01:21:29;5.28;;;3.47;;
70705;SDS011;59320;52.316;10.870;2023-07-22T01:24:01;6.05;;;4.25;;
70705;SDS011;59320;52.316;10.870;2023-07-22T01:26:28;5.50;;;4.22;;
70705;SDS011;59320;52.316;10.870;2023-07-22T01:29:01;6.50;;;4.68;;
70705;SDS011;59320;52.316;10.870;2023-07-22T01:31:29;6.93;;;4.93;;
70705;SDS011;59320;52.316;10.870;2023-07-22T01:33:56;6.10;;;4.63;;
70705;SDS011;59320;52.316;10.870;2023-07-22T01:36:24;8.00;;;4.45;;
70705;SDS011;59320;52.316;10.870;2023-07-22T01:38:51;7.03;;;5.03;;
70705;SDS011;59320;52.316;10.870;2023-07-22T01:41:20;8.13;;;4.88;;
70705;SDS011;59320;52.316;10.870;2023-07-22T01:43:47;7.72;;;5.20;;
70705;SDS011;59320;52.316;10.870;2023-07-22T01:46:14;5.30;;;4.50;;
70705;SDS011;59320;52.316;10.870;2023-07-22T01:48:42;7.32;;;5.07;;
70705;SDS011;59320;52.316;10.870;2023-07-22T01:51:09;5.40;;;4.65;;
70705;SDS011;59320;52.316;10.870;2023-07-22T01:53:36;6.32;;;4.70;;
70705;SDS011;59320;52.316;10.870;2023-07-22T01:56:03;8.60;;;5.45;;
70705;SDS011;59320;52.316;10.870;2023-07-22T01:58:32;9.13;;;5.68;;
70705;SDS011;59320;52.316;10.870;2023-07-22T02:01:00;8.30;;;5.82;;
70705;SDS011;59320;52.316;10.870;2023-07-22T02:03:27;7.30;;;5.82;;
70705;SDS011;59320;52.316;10.870;2023-07-22T02:06:00;8.55;;;6.20;;
70705;SDS011;59320;52.316;10.870;2023-07-22T02:08:28;8.35;;;6.20;;
70705;SDS011;59320;52.316;10.870;2023-07-22T02:10:58;7.93;;;6.07;;
70705;SDS011;59320;52.316;10.870;2023-07-22T02:13:27;7.05;;;5.47;;
70705;SDS011;59320;52.316;10.870;2023-07-22T02:15:56;10.40;;;6.35;;
70705;SDS011;59320;52.316;10.870;2023-07-22T02:18:23;6.68;;;5.55;;
70705;SDS011;59320;52.316;10.870;2023-07-22T02:20:50;9.57;;;6.30;;
70705;SDS011;59320;52.316;10.870;2023-07-22T02:23:17;7.95;;;5.75;;
70705;SDS011;59320;52.316;10.870;2023-07-22T02:25:44;10.23;;;6.65;;
70705;SDS011;59320;52.316;10.870;2023-07-22T02:28:15;8.55;;;6.72;;
70705;SDS011;59320;52.316;10.870;2023-07-22T02:30:46;9.25;;;6.55;;
70705;SDS011;59320;52.316;10.870;2023-07-22T02:33:14;11.63;;;7.35;;
70705;SDS011;59320;52.316;10.870;2023-07-22T02:35:41;8.75;;;6.57;;
70705;SDS011;59320;52.316;10.870;2023-07-22T02:38:09;9.30;;;6.55;;
70705;SDS011;59320;52.316;10.870;2023-07-22T02:40:36;12.05;;;7.57;;
70705;SDS011;59320;52.316;10.870;2023-07-22T02:43:03;12.73;;;7.47;;
70705;SDS011;59320;52.316;10.870;2023-07-22T02:45:32;10.82;;;7.30;;
70705;SDS011;59320;52.316;10.870;2023-07-22T02:47:59;9.30;;;6.53;;
70705;SDS011;59320;52.316;10.870;2023-07-22T02:50:27;10.50;;;6.55;;
70705;SDS011;59320;52.316;10.870;2023-07-22T02:52:55;10.85;;;6.72;;
70705;SDS011;59320;52.316;10.870;2023-07-22T02:55:22;11.23;;;7.13;;
70705;SDS011;59320;52.316;10.870;2023-07-22T02:57:49;10.02;;;6.97;;
70705;SDS011;59320;52.316;10.870;2023-07-22T03:00:17;10.75;;;7.03;;
70705;SDS011;59320;52.316;10.870;2023-07-22T03:02:49;11.20;;;7.32;;
70705;SDS011;59320;52.316;10.870;2023-07-22T03:05:18;9.32;;;6.55;;
70705;SDS011;59320;52.316;10.870;2023-07-22T03:07:47;12.50;;;7.97;;
70705;SDS011;59320;52.316;10.870;2023-07-22T03:10:15;11.32;;;7.60;;
70705;SDS011;59320;52.316;10.870;2023-07-22T03:12:42;13.43;;;7.82;;
70705;SDS011;59320;52.316;10.870;2023-07-22T03:15:09;10.73;;;7.03;;
70705;SDS011;59320;52.316;10.870;2023-07-22T03:17:38;13.70;;;6.88;;
70705;SDS011;59320;52.316;10.870;2023-07-22T03:20:07;12.80;;;8.43;;
70705;SDS011;59320;52.316;10.870;2023-07-22T03:22:40;11.25;;;7.53;;
70705;SDS011;59320;52.316;10.870;2023-07-22T03:25:09;11.20;;;7.10;;
70705;SDS011;59320;52.316;10.870;2023-07-22T03:27:36;14.32;;;7.18;;
70705;SDS011;59320;52.316;10.870;2023-07-22T03:30:04;14.13;;;7.88;;
70705;SDS011;59320;52.316;10.870;2023-07-22T03:32:33;14.02;;;8.00;;
70705;SDS011;59320;52.316;10.870;2023-07-22T03:35:00;12.40;;;7.82;;
70705;SDS011;59320;52.316;10.870;2023-07-22T03:37:28;12.68;;;7.60;;
70705;SDS011;59320;52.316;10.870;2023-07-22T03:39:57;13.73;;;7.65;;
70705;SDS011;59320;52.316;10.870;2023-07-22T03:42:25;9.63;;;6.57;;
70705;SDS011;59320;52.316;10.870;2023-07-22T03:44:52;9.88;;;6.72;;
70705;SDS011;59320;52.316;10.870;2023-07-22T03:47:19;13.52;;;7.50;;
70705;SDS011;59320;52.316;10.870;2023-07-22T03:49:46;12.27;;;7.68;;
70705;SDS011;59320;52.316;10.870;2023-07-22T03:52:13;9.00;;;6.47;;
70705;SDS011;59320;52.316;10.870;2023-07-22T03:54:43;9.63;;;6.10;;
70705;SDS011;59320;52.316;10.870;2023-07-22T03:57:10;9.77;;;7.18;;
70705;SDS011;59320;52.316;10.870;2023-07-22T03:59:40;9.32;;;6.70;;
70705;SDS011;59320;52.316;10.870;2023-07-22T04:02:07;12.60;;;7.43;;
70705;SDS011;59320;52.316;10.870;2023-07-22T04:04:34;11.90;;;7.03;;
70705;SDS011;59320;52.316;10.870;2023-07-22T04:07:01;12.10;;;7.60;;
70705;SDS011;59320;52.316;10.870;2023-07-22T04:09:28;11.05;;;7.60;;
70705;SDS011;59320;52.316;10.870;2023-07-22T04:11:55;11.40;;;7.25;;
70705;SDS011;59320;52.316;10.870;2023-07-22T04:14:22;9.57;;;6.70;;
70705;SDS011;59320;52.316;10.870;2023-07-22T04:16:51;14.43;;;7.35;;
70705;SDS011;59320;52.316;10.870;2023-07-22T04:19:18;13.65;;;7.82;;
70705;SDS011;59320;52.316;10.870;2023-07-22T04:21:45;11.73;;;6.32;;
70705;SDS011;59320;52.316;10.870;2023-07-22T04:24:12;11.45;;;6.47;;
70705;SDS011;59320;52.316;10.870;2023-07-22T04:26:40;10.20;;;6.57;;
70705;SDS011;59320;52.316;10.870;2023-07-22T04:29:07;10.25;;;6.32;;
70705;SDS011;59320;52.316;10.870;2023-07-22T04:31:36;11.20;;;6.28;;
70705;SDS011;59320;52.316;10.870;2023-07-22T04:34:05;11.23;;;6.53;;
70705;SDS011;59320;52.316;10.870;2023-07-22T04:36:33;11.88;;;6.20;;
70705;SDS011;59320;52.316;10.870;2023-07-22T04:39:02;11.52;;;6.60;;
70705;SDS011;59320;52.316;10.870;2023-07-22T04:41:30;11.48;;;5.68;;
70705;SDS011;59320;52.316;10.870;2023-07-22T04:43:57;8.88;;;5.88;;
70705;SDS011;59320;52.316;10.870;2023-07-22T04:46:24;13.15;;;6.80;;
70705;SDS011;59320;52.316;10.870;2023-07-22T04:48:53;10.27;;;6.07;;
70705;SDS011;59320;52.316;10.870;2023-07-22T04:51:21;8.85;;;5.85;;
70705;SDS011;59320;52.316;10.870;2023-07-22T04:53:48;9.57;;;6.50;;
70705;SDS011;59320;52.316;10.870;2023-07-22T04:56:16;10.23;;;6.65;;
70705;SDS011;59320;52.316;10.870;2023-07-22T04:58:43;9.38;;;7.07;;
70705;SDS011;59320;52.316;10.870;2023-07-22T05:01:10;11.00;;;6.47;;
70705;SDS011;59320;52.316;10.870;2023-07-22T05:03:37;12.10;;;6.50;;
70705;SDS011;59320;52.316;10.870;2023-07-22T05:06:05;10.68;;;6.28;;
70705;SDS011;59320;52.316;10.870;2023-07-22T05:08:35;8.73;;;6.05;;
70705;SDS011;59320;52.316;10.870;2023-07-22T05:11:03;10.80;;;6.00;;
70705;SDS011;59320;52.316;10.870;2023-07-22T05:13:30;10.93;;;6.03;;
70705;SDS011;59320;52.316;10.870;2023-07-22T05:15:57;12.45;;;6.38;;
70705;SDS011;59320;52.316;10.870;2023-07-22T05:18:24;11.27;;;6.50;;
70705;SDS011;59320;52.316;10.870;2023-07-22T05:20:51;8.77;;;5.90;;
70705;SDS011;59320;52.316;10.870;2023-07-22T05:23:18;10.40;;;5.75;;
70705;SDS011;59320;52.316;10.870;2023-07-22T05:25:51;8.38;;;5.70;;
70705;SDS011;59320;52.316;10.870;2023-07-22T05:28:19;10.43;;;6.88;;
70705;SDS011;59320;52.316;10.870;2023-07-22T05:30:46;8.70;;;5.72;;
70705;SDS011;59320;52.316;10.870;2023-07-22T05:33:13;7.97;;;5.75;;
70705;SDS011;59320;52.316;10.870;2023-07-22T05:35:40;10.50;;;5.85;;
70705;SDS011;59320;52.316;10.870;2023-07-22T05:38:07;10.68;;;5.47;;
70705;SDS011;59320;52.316;10.870;2023-07-22T05:40:34;9.52;;;5.95;;
70705;SDS011;59320;52.316;10.870;2023-07-22T05:43:02;10.48;;;6.18;;
70705;SDS011;59320;52.316;10.870;2023-07-22T05:45:29;8.27;;;6.10;;
70705;SDS011;59320;52.316;10.870;2023-07-22T05:47:56;9.30;;;5.78;;
70705;SDS011;59320;52.316;10.870;2023-07-22T05:50:23;9.20;;;5.70;;
70705;SDS011;59320;52.316;10.870;2023-07-22T05:52:50;10.35;;;5.95;;
70705;SDS011;59320;52.316;10.870;2023-07-22T05:55:17;12.50;;;6.32;;
70705;SDS011;59320;52.316;10.870;2023-07-22T05:57:44;9.95;;;5.65;;
70705;SDS011;59320;52.316;10.870;2023-07-22T06:00:14;12.20;;;5.68;;
70705;SDS011;59320;52.316;10.870;2023-07-22T06:02:41;7.88;;;5.43;;
70705;SDS011;59320;52.316;10.870;2023-07-22T06:05:08;10.10;;;5.97;;
70705;SDS011;59320;52.316;10.870;2023-07-22T06:07:35;10.07;;;5.32;;
70705;SDS011;59320;52.316;10.870;2023-07-22T06:10:03;12.68;;;5.85;;
70705;SDS011;59320;52.316;10.870;2023-07-22T06:12:30;10.30;;;5.70;;
70705;SDS011;59320;52.316;10.870;2023-07-22T06:14:57;8.70;;;5.70;;
70705;SDS011;59320;52.316;10.870;2023-07-22T06:17:26;7.80;;;5.13;;
70705;SDS011;59320;52.316;10.870;2023-07-22T06:19:53;8.88;;;5.63;;
70705;SDS011;59320;52.316;10.870;2023-07-22T06:22:20;9.85;;;6.35;;
70705;SDS011;59320;52.316;10.870;2023-07-22T06:24:47;7.60;;;5.50;;
70705;SDS011;59320;52.316;10.870;2023-07-22T06:27:14;8.40;;;5.00;;
70705;SDS011;59320;52.316;10.870;2023-07-22T06:29:41;8.60;;;5.80;;
70705;SDS011;59320;52.316;10.870;2023-07-22T06:32:08;9.15;;;5.03;;
70705;SDS011;59320;52.316;10.870;2023-07-22T06:34:36;8.18;;;5.63;;
70705;SDS011;59320;52.316;10.870;2023-07-22T06:37:03;8.98;;;5.55;;
70705;SDS011;59320;52.316;10.870;2023-07-22T06:39:31;10.23;;;5.90;;
70705;SDS011;59320;52.316;10.870;2023-07-22T06:41:58;8.48;;;5.63;;
70705;SDS011;59320;52.316;10.870;2023-07-22T06:44:25;11.35;;;6.00;;
70705;SDS011;59320;52.316;10.870;2023-07-22T06:46:52;8.73;;;5.50;;
70705;SDS011;59320;52.316;10.870;2023-07-22T06:49:19;8.68;;;4.93;;
70705;SDS011;59320;52.316;10.870;2023-07-22T06:51:47;8.77;;;5.43;;
70705;SDS011;59320;52.316;10.870;2023-07-22T06:54:14;8.40;;;5.32;;
70705;SDS011;59320;52.316;10.870;2023-07-22T06:56:41;7.95;;;4.93;;
70705;SDS011;59320;52.316;10.870;2023-07-22T06:59:08;7.78;;;5.32;;
70705;SDS011;59320;52.316;10.870;2023-07-22T07:01:35;7.03;;;4.72;;
70705;SDS011;59320;52.316;10.870;2023-07-22T07:04:02;7.15;;;4.90;;
70705;SDS011;59320;52.316;10.870;2023-07-22T07:06:30;6.68;;;5.25;;
70705;SDS011;59320;52.316;10.870;2023-07-22T07:09:00;8.43;;;4.97;;
70705;SDS011;59320;52.316;10.870;2023-07-22T07:11:27;7.40;;;5.57;;
70705;SDS011;59320;52.316;10.870;2023-07-22T07:13:55;7.05;;;4.85;;
70705;SDS011;59320;52.316;10.870;2023-07-22T07:16:22;8.07;;;5.57;;
70705;SDS011;59320;52.316;10.870;2023-07-22T07:18:50;7.05;;;4.97;;
70705;SDS011;59320;52.316;10.870;2023-07-22T07:21:18;8.88;;;5.70;;
70705;SDS011;59320;52.316;10.870;2023-07-22T07:23:45;7.63;;;5.13;;
70705;SDS011;59320;52.316;10.870;2023-07-22T07:26:14;8.55;;;5.47;;
70705;SDS011;59320;52.316;10.870;2023-07-22T07:28:42;10.20;;;6.03;;
70705;SDS011;59320;52.316;10.870;2023-07-22T07:31:09;7.05;;;5.03;;
70705;SDS011;59320;52.316;10.870;2023-07-22T07:33:36;9.38;;;5.28;;
70705;SDS011;59320;52.316;10.870;2023-07-22T07:36:03;9.48;;;4.85;;
70705;SDS011;59320;52.316;10.870;2023-07-22T07:38:31;8.25;;;5.13;;
70705;SDS011;59320;52.316;10.870;2023-07-22T07:40:58;10.20;;;5.07;;
70705;SDS011;59320;52.316;10.870;2023-07-22T07:43:28;9.25;;;5.68;;
70705;SDS011;59320;52.316;10.870;2023-07-22T07:48:43;8.25;;;5.30;;
70705;SDS011;59320;52.316;10.870;2023-07-22T07:51:11;9.05;;;5.10;;
70705;SDS011;59320;52.316;10.870;2023-07-22T07:53:39;7.95;;;5.35;;
70705;SDS011;59320;52.316;10.870;2023-07-22T07:56:07;7.75;;;4.45;;
70705;SDS011;59320;52.316;10.870;2023-07-22T07:58:36;7.82;;;4.80;;
70705;SDS011;59320;52.316;10.870;2023-07-22T08:01:04;6.60;;;5.00;;
70705;SDS011;59320;52.316;10.870;2023-07-22T08:03:32;5.38;;;4.40;;
70705;SDS011;59320;52.316;10.870;2023-07-22T08:06:00;7.68;;;4.82;;
70705;SDS011;59320;52.316;10.870;2023-07-22T08:08:27;8.43;;;5.18;;
70705;SDS011;59320;52.316;10.870;2023-07-22T08:10:57;7.72;;;4.90;;
70705;SDS011;59320;52.316;10.870;2023-07-22T08:13:25;6.10;;;4.85;;
70705;SDS011;59320;52.316;10.870;2023-07-22T08:15:56;7.10;;;4.50;;
70705;SDS011;59320;52.316;10.870;2023-07-22T08:18:23;6.88;;;4.57;;
70705;SDS011;59320;52.316;10.870;2023-07-22T08:20:51;8.65;;;5.07;;
70705;SDS011;59320;52.316;10.870;2023-07-22T08:23:18;7.70;;;4.57;;
70705;SDS011;59320;52.316;10.870;2023-07-22T08:25:46;6.55;;;4.22;;
70705;SDS011;59320;52.316;10.870;2023-07-22T08:28:14;6.25;;;4.50;;
70705;SDS011;59320;52.316;10.870;2023-07-22T08:30:42;7.03;;;4.13;;
70705;SDS011;59320;52.316;10.870;2023-07-22T08:33:11;7.40;;;4.03;;
70705;SDS011;59320;52.316;10.870;2023-07-22T08:35:38;4.93;;;4.05;;
70705;SDS011;59320;52.316;10.870;2023-07-22T08:38:06;4.53;;;3.92;;
70705;SDS011;59320;52.316;10.870;2023-07-22T08:40:34;5.30;;;3.78;;
70705;SDS011;59320;52.316;10.870;2023-07-22T08:43:02;6.32;;;4.13;;
70705;SDS011;59320;52.316;10.870;2023-07-22T08:45:31;7.15;;;4.35;;
70705;SDS011;59320;52.316;10.870;2023-07-22T08:48:02;5.35;;;4.15;;
70705;SDS011;59320;52.316;10.870;2023-07-22T08:50:34;6.80;;;4.50;;
70705;SDS011;59320;52.316;10.870;2023-07-22T08:53:12;6.95;;;4.28;;
70705;SDS011;59320;52.316;10.870;2023-07-22T08:55:39;5.22;;;4.50;;
70705;SDS011;59320;52.316;10.870;2023-07-22T08:58:07;7.93;;;4.90;;
70705;SDS011;59320;52.316;10.870;2023-07-22T09:00:35;7.40;;;5.13;;
70705;SDS011;59320;52.316;10.870;2023-07-22T09:03:03;8.57;;;5.22;;
70705;SDS011;59320;52.316;10.870;2023-07-22T09:05:31;7.30;;;4.97;;
70705;SDS011;59320;52.316;10.870;2023-07-22T09:08:00;6.70;;;4.90;;
70705;SDS011;59320;52.316;10.870;2023-07-22T09:10:28;5.80;;;4.22;;
70705;SDS011;59320;52.316;10.870;2023-07-22T09:12:56;6.45;;;4.70;;
70705;SDS011;59320;52.316;10.870;2023-07-22T09:15:24;6.82;;;4.40;;
70705;SDS011;59320;52.316;10.870;2023-07-22T09:17:52;6.47;;;4.38;;
70705;SDS011;59320;52.316;10.870;2023-07-22T09:20:20;5.18;;;4.50;;
70705;SDS011;59320;52.316;10.870;2023-07-22T09:22:48;5.05;;;4.40;;
70705;SDS011;59320;52.316;10.870;2023-07-22T09:25:18;7.55;;;4.68;;
70705;SDS011;59320;52.316;10.870;2023-07-22T09:27:47;9.88;;;4.82;;
70705;SDS011;59320;52.316;10.870;2023-07-22T09:30:21;5.20;;;4.57;;
70705;SDS011;59320;52.316;10.870;2023-07-22T09:32:51;7.45;;;4.60;;
70705;SDS011;59320;52.316;10.870;2023-07-22T09:35:19;8.35;;;4.95;;
70705;SDS011;59320;52.316;10.870;2023-07-22T09:37:46;5.25;;;4.13;;
70705;SDS011;59320;52.316;10.870;2023-07-22T09:40:18;6.82;;;4.50;;
70705;SDS011;59320;52.316;10.870;2023-07-22T09:42:47;4.95;;;3.72;;
70705;SDS011;59320;52.316;10.870;2023-07-22T09:45:15;5.18;;;4.05;;
70705;SDS011;59320;52.316;10.870;2023-07-22T09:47:43;4.78;;;3.88;;
70705;SDS011;59320;52.316;10.870;2023-07-22T09:50:14;5.97;;;4.35;;
70705;SDS011;59320;52.316;10.870;2023-07-22T09:52:46;5.20;;;4.30;;
70705;SDS011;59320;52.316;10.870;2023-07-22T09:55:14;5.22;;;4.68;;
70705;SDS011;59320;52.316;10.870;2023-07-22T09:57:45;5.03;;;4.30;;
70705;SDS011;59320;52.316;10.870;2023-07-22T10:00:14;5.53;;;4.40;;
70705;SDS011;59320;52.316;10.870;2023-07-22T10:02:43;7.47;;;6.18;;
70705;SDS011;59320;52.316;10.870;2023-07-22T10:05:14;7.00;;;6.30;;
70705;SDS011;59320;52.316;10.870;2023-07-22T10:07:44;10.68;;;7.47;;
70705;SDS011;59320;52.316;10.870;2023-07-22T10:10:13;7.72;;;6.63;;
70705;SDS011;59320;52.316;10.870;2023-07-22T10:12:43;9.98;;;6.57;;
70705;SDS011;59320;52.316;10.870;2023-07-22T10:15:13;6.82;;;5.82;;
70705;SDS011;59320;52.316;10.870;2023-07-22T10:17:42;6.72;;;5.68;;
70705;SDS011;59320;52.316;10.870;2023-07-22T10:20:16;7.72;;;6.78;;
70705;SDS011;59320;52.316;10.870;2023-07-22T10:22:45;7.68;;;6.30;;
70705;SDS011;59320;52.316;10.870;2023-07-22T10:25:15;7.93;;;6.07;;
70705;SDS011;59320;52.316;10.870;2023-07-22T10:27:44;8.73;;;6.88;;
70705;SDS011;59320;52.316;10.870;2023-07-22T10:30:12;6.75;;;5.90;;
70705;SDS011;59320;52.316;10.870;2023-07-22T10:32:43;7.40;;;6.13;;
70705;SDS011;59320;52.316;10.870;2023-07-22T10:35:21;7.75;;;5.97;;
70705;SDS011;59320;52.316;10.870;2023-07-22T10:37:49;10.02;;;6.68;;
70705;SDS011;59320;52.316;10.870;2023-07-22T10:40:19;8.57;;;7.20;;
70705;SDS011;59320;52.316;10.870;2023-07-22T10:42:56;8.82;;;6.35;;
70705;SDS011;59320;52.316;10.870;2023-07-22T10:45:26;7.53;;;6.10;;
70705;SDS011;59320;52.316;10.870;2023-07-22T10:48:02;9.43;;;6.40;;
70705;SDS011;59320;52.316;10.870;2023-07-22T10:50:40;7.57;;;6.22;;
70705;SDS011;59320;52.316;10.870;2023-07-22T10:53:12;7.47;;;6.43;;
70705;SDS011;59320;52.316;10.870;2023-07-22T10:58:31;6.38;;;5.47;;
70705;SDS011;59320;52.316;10.870;2023-07-22T11:06:59;7.85;;;5.55;;
70705;SDS011;59320;52.316;10.870;2023-07-22T11:12:03;6.77;;;4.63;;
70705;SDS011;59320;52.316;10.870;2023-07-22T11:14:34;6.88;;;4.72;;
70705;SDS011;59320;52.316;10.870;2023-07-22T11:17:04;5.95;;;4.63;;
70705;SDS011;59320;52.316;10.870;2023-07-22T11:19:36;5.63;;;4.68;;
70705;SDS011;59320;52.316;10.870;2023-07-22T11:22:04;4.90;;;4.30;;
70705;SDS011;59320;52.316;10.870;2023-07-22T11:24:32;8.05;;;4.20;;
70705;SDS011;59320;52.316;10.870;2023-07-22T11:27:03;5.40;;;3.97;;
70705;SDS011;59320;52.316;10.870;2023-07-22T11:29:31;5.95;;;3.60;;
70705;SDS011;59320;52.316;10.870;2023-07-22T11:32:01;4.35;;;3.80;;
70705;SDS011;59320;52.316;10.870;2023-07-22T11:34:32;5.47;;;4.15;;
70705;SDS011;59320;52.316;10.870;2023-07-22T11:36:59;4.80;;;4.03;;
70705;SDS011;59320;52.316;10.870;2023-07-22T11:39:27;5.50;;;3.97;;
70705;SDS011;59320;52.316;10.870;2023-07-22T11:41:56;5.43;;;4.20;;
70705;SDS011;59320;52.316;10.870;2023-07-22T11:44:29;6.03;;;3.60;;
70705;SDS011;59320;52.316;10.870;2023-07-22T11:46:58;5.80;;;3.97;;
70705;SDS011;59320;52.316;10.870;2023-07-22T11:49:29;4.15;;;3.70;;
70705;SDS011;59320;52.316;10.870;2023-07-22T11:51:57;4.50;;;3.67;;
70705;SDS011;59320;52.316;10.870;2023-07-22T11:54:26;4.88;;;3.50;;
70705;SDS011;59320;52.316;10.870;2023-07-22T11:56:54;5.68;;;4.00;;
70705;SDS011;59320;52.316;10.870;2023-07-22T11:59:32;7.35;;;3.83;;
70705;SDS011;59320;52.316;10.870;2023-07-22T12:02:02;6.25;;;3.90;;
70705;SDS011;59320;52.316;10.870;2023-07-22T12:04:31;4.97;;;4.47;;
70705;SDS011;59320;52.316;10.870;2023-07-22T12:06:59;5.45;;;4.00;;
70705;SDS011;59320;52.316;10.870;2023-07-22T12:09:29;5.10;;;3.53;;
70705;SDS011;59320;52.316;10.870;2023-07-22T12:11:56;8.32;;;3.90;;
70705;SDS011;59320;52.316;10.870;2023-07-22T12:14:25;6.22;;;4.05;;
70705;SDS011;59320;52.316;10.870;2023-07-22T12:17:01;8.90;;;3.33;;
70705;SDS011;59320;52.316;10.870;2023-07-22T12:19:29;4.38;;;3.50;;
70705;SDS011;59320;52.316;10.870;2023-07-22T12:21:56;5.20;;;3.50;;
70705;SDS011;59320;52.316;10.870;2023-07-22T12:24:23;5.68;;;3.25;;
70705;SDS011;59320;52.316;10.870;2023-07-22T12:26:51;4.53;;;3.53;;
70705;SDS011;59320;52.316;10.870;2023-07-22T12:29:18;6.45;;;3.95;;
70705;SDS011;59320;52.316;10.870;2023-07-22T12:31:45;4.82;;;3.38;;
70705;SDS011;59320;52.316;10.870;2023-07-22T12:34:13;4.00;;;3.60;;
70705;SDS011;59320;52.316;10.870;2023-07-22T12:36:40;3.72;;;3.20;;
70705;SDS011;59320;52.316;10.870;2023-07-22T12:39:07;3.55;;;2.85;;
70705;SDS011;59320;52.316;10.870;2023-07-22T12:41:34;3.78;;;3.10;;
70705;SDS011;59320;52.316;10.870;2023-07-22T12:44:01;4.78;;;3.63;;
70705;SDS011;59320;52.316;10.870;2023-07-22T12:46:28;3.47;;;3.00;;
70705;SDS011;59320;52.316;10.870;2023-07-22T12:48:55;3.80;;;3.10;;
70705;SDS011;59320;52.316;10.870;2023-07-22T12:51:24;4.78;;;3.47;;
70705;SDS011;59320;52.316;10.870;2023-07-22T12:53:51;4.18;;;3.08;;
70705;SDS011;59320;52.316;10.870;2023-07-22T12:56:18;5.38;;;3.10;;
70705;SDS011;59320;52.316;10.870;2023-07-22T12:58:44;5.95;;;3.50;;
70705;SDS011;59320;52.316;10.870;2023-07-22T13:01:12;5.07;;;3.50;;
70705;SDS011;59320;52.316;10.870;2023-07-22T13:03:39;4.47;;;3.78;;
70705;SDS011;59320;52.316;10.870;2023-07-22T13:06:06;6.22;;;3.88;;
70705;SDS011;59320;52.316;10.870;2023-07-22T13:08:34;4.85;;;3.88;;
70705;SDS011;59320;52.316;10.870;2023-07-22T13:11:01;5.50;;;3.53;;
70705;SDS011;59320;52.316;10.870;2023-07-22T13:13:28;6.38;;;4.10;;
70705;SDS011;59320;52.316;10.870;2023-07-22T13:15:55;4.97;;;3.67;;
70705;SDS011;59320;52.316;10.870;2023-07-22T13:18:23;4.07;;;3.20;;
70705;SDS011;59320;52.316;10.870;2023-07-22T13:20:50;6.72;;;3.97;;
70705;SDS011;59320;52.316;10.870;2023-07-22T13:23:17;6.10;;;3.45;;
70705;SDS011;59320;52.316;10.870;2023-07-22T13:25:45;4.10;;;3.70;;
70705;SDS011;59320;52.316;10.870;2023-07-22T13:28:12;3.97;;;3.58;;
70705;SDS011;59320;52.316;10.870;2023-07-22T13:30:40;3.95;;;3.55;;
70705;SDS011;59320;52.316;10.870;2023-07-22T13:33:07;4.28;;;3.17;;
70705;SDS011;59320;52.316;10.870;2023-07-22T13:35:34;4.07;;;3.33;;
70705;SDS011;59320;52.316;10.870;2023-07-22T13:38:01;3.58;;;3.10;;
70705;SDS011;59320;52.316;10.870;2023-07-22T13:40:28;5.03;;;3.63;;
70705;SDS011;59320;52.316;10.870;2023-07-22T13:42:57;5.18;;;2.95;;
70705;SDS011;59320;52.316;10.870;2023-07-22T13:45:25;5.13;;;3.95;;
70705;SDS011;59320;52.316;10.870;2023-07-22T13:47:55;5.00;;;3.95;;
70705;SDS011;59320;52.316;10.870;2023-07-22T13:50:22;4.10;;;3.47;;
70705;SDS011;59320;52.316;10.870;2023-07-22T13:52:52;4.45;;;3.17;;
70705;SDS011;59320;52.316;10.870;2023-07-22T13:55:24;4.82;;;3.42;;
70705;SDS011;59320;52.316;10.870;2023-07-22T13:57:51;4.60;;;4.03;;
70705;SDS011;59320;52.316;10.870;2023-07-22T14:00:20;4.72;;;4.03;;
70705;SDS011;59320;52.316;10.870;2023-07-22T14:02:47;4.90;;;3.95;;
70705;SDS011;59320;52.316;10.870;2023-07-22T14:05:17;4.93;;;3.95;;
70705;SDS011;59320;52.316;10.870;2023-07-22T14:07:44;5.40;;;3.78;;
70705;SDS011;59320;52.316;10.870;2023-07-22T14:10:11;8.48;;;4.78;;
70705;SDS011;59320;52.316;10.870;2023-07-22T14:12:38;5.68;;;4.47;;
70705;SDS011;59320;52.316;10.870;2023-07-22T14:15:08;7.00;;;4.10;;
70705;SDS011;59320;52.316;10.870;2023-07-22T14:17:37;7.53;;;4.15;;
70705;SDS011;59320;52.316;10.870;2023-07-22T14:20:05;4.85;;;4.35;;
70705;SDS011;59320;52.316;10.870;2023-07-22T14:22:33;5.70;;;4.65;;
70705;SDS011;59320;52.316;10.870;2023-07-22T14:25:00;5.88;;;5.03;;
70705;SDS011;59320;52.316;10.870;2023-07-22T14:27:27;5.05;;;4.30;;
70705;SDS011;59320;52.316;10.870;2023-07-22T14:29:56;6.13;;;4.68;;
70705;SDS011;59320;52.316;10.870;2023-07-22T14:32:26;5.38;;;4.38;;
70705;SDS011;59320;52.316;10.870;2023-07-22T14:34:57;5.10;;;4.60;;
70705;SDS011;59320;52.316;10.870;2023-07-22T14:37:27;5.72;;;5.13;;
70705;SDS011;59320;52.316;10.870;2023-07-22T14:39:54;5.30;;;4.55;;
70705;SDS011;59320;52.316;10.870;2023-07-22T14:42:21;6.25;;;4.32;;
70705;SDS011;59320;52.316;10.870;2023-07-22T14:44:48;5.10;;;4.60;;
70705;SDS011;59320;52.316;10.870;2023-07-22T14:47:15;4.43;;;4.03;;
70705;SDS011;59320;52.316;10.870;2023-07-22T14:49:42;5.78;;;4.00;;